Terminal Aerodrome Forecast
Issued by NWS

Home | Current Version | Previous Version | Text Only | Print | Product List | Glossary On
Versions: 1 2 3 4 5 6 7 8 9 10 11 12 13 14 15 16
158
FTUS43 KGRR 141140
TAFMKG
TAF
KMKG 141140Z 1412/1512 13009KT P6SM BKN035
     FM141800 14013KT P6SM SCT040 BKN120
     FM150000 13012KT 4SM -SN OVC025
     FM150400 14012KT 2SM -SN OVC015=

USA.gov is the U.S. government's official web portal to all federal, state and local government web resources and services.